createdAt,value
2023-03-26T00:01:40.631Z,97034.65
2023-03-26T00:04:09.301Z,97034.67
2023-03-26T00:06:39.935Z,97030.44
2023-03-26T00:09:13.793Z,97033.61
2023-03-26T00:11:43.068Z,97033.22
2023-03-26T00:14:14.114Z,97029.31
2023-03-26T00:16:42.870Z,97029.27
2023-03-26T00:19:12.605Z,97034.46
2023-03-26T00:21:41.454Z,97035.41
2023-03-26T00:24:17.539Z,97036.39
2023-03-26T00:26:53.126Z,97040.23
2023-03-26T00:29:27.925Z,97046.92
2023-03-26T00:31:56.189Z,97047.49
2023-03-26T00:34:24.864Z,97046.18
2023-03-26T00:36:55.342Z,97049.05
2023-03-26T00:39:24.808Z,97054.02
2023-03-26T00:41:54.569Z,97048.80
2023-03-26T00:44:23.313Z,97047.27
2023-03-26T00:46:51.925Z,97046.13
2023-03-26T00:49:20.134Z,97045.36
2023-03-26T00:51:48.456Z,97044.05
2023-03-26T00:54:17.645Z,97047.36
2023-03-26T00:56:47.209Z,97047.15
2023-03-26T00:59:17.029Z,97045.32
2023-03-26T01:01:45.262Z,97046.58
2023-03-26T01:04:35.035Z,97042.89
2023-03-26T01:07:11.843Z,97041.76
2023-03-26T01:09:45.783Z,97040.95
2023-03-26T01:12:18.297Z,97037.15
2023-03-26T01:14:52.083Z,97039.45
2023-03-26T01:17:20.326Z,97034.70
2023-03-26T01:20:08.011Z,97037.60
2023-03-26T01:22:37.785Z,97032.27
2023-03-26T01:25:07.320Z,97028.14
2023-03-26T01:27:54.528Z,97025.69
2023-03-26T01:30:44.413Z,97023.11
2023-03-26T01:33:43.911Z,97018.78
2023-03-26T01:36:38.140Z,97020.89
2023-03-26T01:39:22.797Z,97025.56
2023-03-26T01:42:16.150Z,97033.34
2023-03-26T01:44:55.375Z,97037.30
2023-03-26T01:47:24.119Z,97038.27
2023-03-26T01:49:52.368Z,97044.73
2023-03-26T01:52:25.222Z,97044.19
2023-03-26T01:54:57.666Z,97049.16
2023-03-26T01:57:38.752Z,97053.91
2023-03-26T02:00:33.597Z,97057.47
2023-03-26T02:03:17.965Z,97061.05
2023-03-26T02:06:18.366Z,97065.82
2023-03-26T02:08:56.949Z,97067.05
2023-03-26T02:11:33.667Z,97070.02
2023-03-26T02:14:06.146Z,97073.79
2023-03-26T02:16:34.601Z,97070.80
2023-03-26T02:19:04.534Z,97070.27
2023-03-26T02:21:34.185Z,97067.39
2023-03-26T02:24:05.252Z,97070.66
2023-03-26T02:26:37.790Z,97065.76
2023-03-26T02:29:19.321Z,97066.35
2023-03-26T02:31:48.842Z,97059.54
2023-03-26T02:34:17.328Z,97065.06
2023-03-26T02:36:51.704Z,97068.73
2023-03-26T02:39:20.864Z,97073.05
2023-03-26T02:41:56.409Z,97077.54
2023-03-26T02:44:25.353Z,97080.75
2023-03-26T02:46:59.070Z,97080.86
2023-03-26T02:50:12.046Z,97084.92
2023-03-26T02:52:53.452Z,97088.98
2023-03-26T02:55:21.634Z,97092.59
2023-03-26T02:57:50.998Z,97094.27
2023-03-26T03:00:25.900Z,97096.80
2023-03-26T03:03:14.304Z,97098.53
2023-03-26T03:06:00.425Z,97099.56
2023-03-26T03:08:36.470Z,97105.88
2023-03-26T03:12:00.770Z,97106.20
2023-03-26T03:14:28.915Z,97107.23
2023-03-26T03:16:57.819Z,97110.88
2023-03-26T03:19:26.032Z,97106.77
2023-03-26T03:21:54.175Z,97105.41
2023-03-26T03:24:23.548Z,97103.77
2023-03-26T03:26:56.832Z,97100.80
2023-03-26T03:29:42.983Z,97099.35
2023-03-26T03:32:31.607Z,97098.23
2023-03-26T03:35:02.967Z,97100.38
2023-03-26T03:37:31.340Z,97098.64
2023-03-26T03:39:59.961Z,97098.55
2023-03-26T03:42:29.378Z,97099.92
2023-03-26T03:45:00.036Z,97099.70
2023-03-26T03:47:48.524Z,97105.95
2023-03-26T03:50:19.616Z,97105.70
2023-03-26T03:52:59.125Z,97106.41
2023-03-26T03:55:27.732Z,97109.97
2023-03-26T03:57:56.871Z,97110.59
2023-03-26T04:00:26.019Z,97108.61
2023-03-26T04:03:06.569Z,97108.96
2023-03-26T04:05:35.123Z,97110.24
2023-03-26T04:08:03.317Z,97107.50
2023-03-26T04:10:45.390Z,97112.14
2023-03-26T04:13:14.827Z,97113.86
2023-03-26T04:16:35.721Z,97117.05
2023-03-26T04:19:04.101Z,97120.39
2023-03-26T04:21:33.956Z,97126.58
2023-03-26T04:24:02.546Z,97126.66
2023-03-26T04:26:50.045Z,97127.92
2023-03-26T04:29:25.671Z,97129.27
2023-03-26T04:31:58.794Z,97135.33
2023-03-26T04:34:27.370Z,97137.05
2023-03-26T04:37:48.506Z,97143.34
2023-03-26T04:40:23.445Z,97144.09
2023-03-26T04:43:35.567Z,97145.44
2023-03-26T04:46:10.608Z,97145.21
2023-03-26T04:48:45.152Z,97141.83
2023-03-26T04:51:18.406Z,97145.91
2023-03-26T04:53:58.312Z,97149.66
2023-03-26T04:56:54.121Z,97148.18
2023-03-26T04:59:35.601Z,97147.70
2023-03-26T05:02:08.314Z,97149.58
2023-03-26T05:04:45.929Z,97154.02
2023-03-26T05:07:20.660Z,97149.61
2023-03-26T05:09:51.417Z,97151.84
2023-03-26T05:12:38.179Z,97154.81
2023-03-26T05:15:11.895Z,97157.39
2023-03-26T05:17:49.053Z,97160.11
2023-03-26T05:20:27.934Z,97163.23
2023-03-26T05:22:56.361Z,97163.02
2023-03-26T05:25:32.377Z,97160.10
2023-03-26T05:28:02.324Z,97161.04
2023-03-26T05:30:37.129Z,97159.82
2023-03-26T05:33:05.677Z,97161.10
2023-03-26T05:35:41.868Z,97161.10
2023-03-26T05:38:10.772Z,97160.59
2023-03-26T05:40:38.926Z,97163.33
2023-03-26T05:43:08.009Z,97161.72
2023-03-26T05:45:48.303Z,97162.85
2023-03-26T05:48:26.957Z,97163.73
2023-03-26T05:50:58.046Z,97162.58
2023-03-26T05:53:27.944Z,97157.86
2023-03-26T05:56:48.822Z,97157.21
2023-03-26T05:59:36.662Z,97157.79
2023-03-26T06:02:23.854Z,97145.17
2023-03-26T06:05:10.596Z,97151.98
2023-03-26T06:07:57.480Z,97145.27
2023-03-26T06:10:32.355Z,97143.02
2023-03-26T06:13:00.672Z,97137.46
2023-03-26T06:15:28.837Z,97134.66
2023-03-26T06:18:02.402Z,97135.58
2023-03-26T06:20:41.530Z,97138.56
2023-03-26T06:23:19.090Z,97140.97
2023-03-26T06:26:05.819Z,97138.19
2023-03-26T06:28:50.726Z,97138.98
2023-03-26T06:31:41.162Z,97137.71
2023-03-26T06:34:17.026Z,97140.77
2023-03-26T06:36:45.356Z,97143.66
2023-03-26T06:39:13.697Z,97147.27
2023-03-26T06:41:49.409Z,97153.48
2023-03-26T06:44:36.022Z,97159.23
2023-03-26T06:47:22.730Z,97157.20
2023-03-26T06:50:11.901Z,97152.65
2023-03-26T06:52:58.694Z,97156.09
2023-03-26T06:56:25.770Z,97161.58
2023-03-26T06:59:06.146Z,97160.34
2023-03-26T07:01:52.530Z,97165.16
2023-03-26T07:04:39.734Z,97163.63
2023-03-26T07:07:26.273Z,97158.98
2023-03-26T07:10:13.174Z,97162.18
2023-03-26T07:13:00.372Z,97166.09
2023-03-26T07:15:31.277Z,97169.56
2023-03-26T07:18:18.625Z,97169.02
2023-03-26T07:20:47.903Z,97170.47
2023-03-26T07:23:20.643Z,97169.26
2023-03-26T07:26:52.199Z,97178.30
2023-03-26T07:29:31.071Z,97178.42
2023-03-26T07:33:10.930Z,97173.29
2023-03-26T07:36:01.706Z,97177.05
2023-03-26T07:39:59.737Z,97178.74
2023-03-26T07:43:24.873Z,97178.21
2023-03-26T07:45:57.505Z,97182.27
2023-03-26T07:49:06.980Z,97183.44
2023-03-26T07:51:42.371Z,97179.38
2023-03-26T07:54:33.938Z,97181.02
2023-03-26T07:57:48.288Z,97176.51
2023-03-26T08:01:36.838Z,97174.38
2023-03-26T08:04:27.818Z,97167.80
2023-03-26T08:07:34.127Z,97168.73
2023-03-26T08:10:27.285Z,97168.66
2023-03-26T08:13:14.043Z,97168.27
2023-03-26T08:15:53.577Z,97169.36
2023-03-26T08:18:44.799Z,97165.27
2023-03-26T08:21:35.692Z,97171.85
2023-03-26T08:24:59.444Z,97170.59
2023-03-26T08:27:31.826Z,97171.06
2023-03-26T08:30:17.170Z,97167.14
2023-03-26T08:33:11.842Z,97155.34
2023-03-26T08:35:42.880Z,97152.58
2023-03-26T08:38:13.592Z,97155.48
2023-03-26T08:41:09.088Z,97150.80
2023-03-26T08:44:17.173Z,97149.44
2023-03-26T08:47:29.207Z,97147.48
2023-03-26T08:50:17.390Z,97149.64
2023-03-26T08:53:32.877Z,97149.52
2023-03-26T08:56:40.239Z,97144.44
2023-03-26T08:59:40.410Z,97148.87
2023-03-26T09:03:06.356Z,97148.84
2023-03-26T09:06:05.850Z,97146.63
2023-03-26T09:08:59.320Z,97147.02
2023-03-26T09:12:04.323Z,97145.23
2023-03-26T09:14:44.992Z,97147.04
2023-03-26T09:18:10.336Z,97155.20
2023-03-26T09:21:37.349Z,97151.66
2023-03-26T09:24:50.114Z,97149.66
2023-03-26T09:28:01.996Z,97154.95
2023-03-26T09:30:48.762Z,97154.48
2023-03-26T09:33:32.852Z,97150.45
2023-03-26T09:36:32.514Z,97146.66
2023-03-26T09:39:39.020Z,97149.70
2023-03-26T09:42:49.766Z,97151.38
2023-03-26T09:45:50.951Z,97147.27
2023-03-26T09:49:12.748Z,97146.08
2023-03-26T09:52:08.024Z,97147.67
2023-03-26T09:54:51.732Z,97148.12
2023-03-26T09:58:07.178Z,97149.35
2023-03-26T10:01:15.111Z,97145.45
2023-03-26T10:04:29.448Z,97142.70
2023-03-26T10:07:34.172Z,97144.70
2023-03-26T10:10:30.994Z,97146.91
2023-03-26T10:13:50.404Z,97142.42
2023-03-26T10:17:32.010Z,97131.14
2023-03-26T10:20:31.006Z,97131.75
2023-03-26T10:23:52.960Z,97131.10
2023-03-26T10:27:08.891Z,97134.73
2023-03-26T10:30:21.059Z,97136.64
2023-03-26T10:33:05.100Z,97127.09
2023-03-26T10:35:50.862Z,97120.39
2023-03-26T10:38:58.410Z,97122.79
2023-03-26T10:41:53.675Z,97127.31
2023-03-26T10:45:09.628Z,97127.02
2023-03-26T10:47:59.419Z,97118.35
2023-03-26T10:50:52.913Z,97128.38
2023-03-26T10:53:31.098Z,97119.83
2023-03-26T10:56:17.414Z,97116.54
2023-03-26T10:58:49.691Z,97115.52
2023-03-26T11:01:49.582Z,97112.19
2023-03-26T11:04:53.082Z,97106.36
2023-03-26T11:07:54.002Z,97105.36
2023-03-26T11:10:56.346Z,97105.41
2023-03-26T11:13:45.372Z,97109.64
2023-03-26T11:16:33.077Z,97104.99
2023-03-26T11:19:31.706Z,97091.53
2023-03-26T11:22:37.228Z,97091.73
2023-03-26T11:25:30.058Z,97081.15
2023-03-26T11:28:36.112Z,97082.19
2023-03-26T11:31:25.742Z,97086.84
2023-03-26T11:34:00.998Z,97089.39
2023-03-26T11:36:40.859Z,97082.82
2023-03-26T11:39:15.489Z,97087.45
2023-03-26T11:41:43.944Z,97083.06
2023-03-26T11:44:57.336Z,97085.40
2023-03-26T11:47:38.727Z,97084.14
2023-03-26T11:50:14.444Z,97075.77
2023-03-26T11:52:44.088Z,97080.53
2023-03-26T11:55:14.060Z,97073.93
2023-03-26T11:57:53.655Z,97070.52
2023-03-26T12:00:27.625Z,97066.73
2023-03-26T12:03:00.441Z,97072.60
2023-03-26T12:05:33.673Z,97072.55
2023-03-26T12:08:21.662Z,97065.20
2023-03-26T12:11:02.103Z,97067.03
2023-03-26T12:13:41.924Z,97068.27
2023-03-26T12:16:20.839Z,97061.95
2023-03-26T12:19:22.308Z,97062.24
2023-03-26T12:21:52.978Z,97053.33
2023-03-26T12:24:39.114Z,97052.27
2023-03-26T12:27:28.393Z,97044.91
2023-03-26T12:30:12.394Z,97046.42
2023-03-26T12:32:46.830Z,97046.04
2023-03-26T12:35:27.743Z,97047.22
2023-03-26T12:38:14.338Z,97052.08
2023-03-26T12:40:43.324Z,97046.64
2023-03-26T12:44:55.183Z,97039.95
2023-03-26T12:47:56.582Z,97043.55
2023-03-26T12:49:22.260Z,97036.45
2023-03-26T12:52:02.258Z,97038.97
2023-03-26T12:55:12.227Z,97036.02
2023-03-26T12:58:13.890Z,97029.25
2023-03-26T13:01:19.429Z,97021.95
2023-03-26T13:04:30.153Z,97019.02
2023-03-26T13:07:06.398Z,97018.27
2023-03-26T13:10:19.669Z,97012.37
2023-03-26T13:13:18.630Z,97010.41
2023-03-26T13:15:53.895Z,97011.69
2023-03-26T13:18:59.567Z,97002.50
2023-03-26T13:21:57.969Z,97007.23
2023-03-26T13:24:38.396Z,97009.58
2023-03-26T13:27:22.018Z,97007.40
2023-03-26T13:30:13.703Z,97004.38
2023-03-26T13:32:42.520Z,96999.17
2023-03-26T13:35:28.155Z,96988.95
2023-03-26T13:38:05.746Z,96997.85
2023-03-26T13:41:01.603Z,96995.77
2023-03-26T13:43:34.739Z,96992.86
2023-03-26T13:46:29.519Z,96988.73
2023-03-26T13:49:08.174Z,96990.71
2023-03-26T13:51:56.943Z,96982.84
2023-03-26T13:54:37.276Z,96984.51
2023-03-26T13:57:14.654Z,96982.70
2023-03-26T13:59:54.738Z,96977.88
2023-03-26T14:02:37.655Z,96970.89
2023-03-26T14:05:21.759Z,96970.27
2023-03-26T14:07:57.371Z,96964.62
2023-03-26T14:10:31.129Z,96961.67
2023-03-26T14:13:10.019Z,96962.04
2023-03-26T14:15:52.624Z,96955.86
2023-03-26T14:18:28.615Z,96951.05
2023-03-26T14:21:39.634Z,96947.73
2023-03-26T14:24:26.457Z,96941.98
2023-03-26T14:27:37.173Z,96942.33
2023-03-26T14:30:39.047Z,96933.48
2023-03-26T14:33:48.157Z,96930.82
2023-03-26T14:36:59.104Z,96942.16
2023-03-26T14:40:15.035Z,96940.25
2023-03-26T14:43:15.026Z,96946.80
2023-03-26T14:46:17.112Z,96944.16
2023-03-26T14:49:20.944Z,96947.27
2023-03-26T14:52:10.000Z,96944.41
2023-03-26T14:54:44.017Z,96944.21
2023-03-26T14:57:33.172Z,96941.46
2023-03-26T15:00:51.304Z,96939.77
2023-03-26T15:03:58.872Z,96940.86
2023-03-26T15:07:03.930Z,96942.34
2023-03-26T15:10:38.132Z,96939.12
2023-03-26T15:13:26.853Z,96945.10
2023-03-26T15:16:17.748Z,96948.63
2023-03-26T15:19:25.780Z,96948.29
2023-03-26T15:22:38.131Z,96949.05
2023-03-26T15:25:42.992Z,96952.67
2023-03-26T15:28:52.472Z,96946.95
2023-03-26T15:31:42.679Z,96936.80
2023-03-26T15:34:34.211Z,96931.56
2023-03-26T15:37:52.706Z,96926.63
2023-03-26T15:41:17.739Z,96924.23
2023-03-26T15:44:24.288Z,96922.45
2023-03-26T15:47:17.026Z,96920.73
2023-03-26T15:49:55.056Z,96916.92
2023-03-26T15:52:43.052Z,96913.89
2023-03-26T15:55:36.271Z,96918.53
2023-03-26T16:02:02.603Z,96930.28
2023-03-26T16:04:50.431Z,96930.16
2023-03-26T16:07:49.346Z,96928.48
2023-03-26T16:10:38.374Z,96927.11
2023-03-26T16:13:41.259Z,96929.88
2023-03-26T16:16:15.507Z,96928.98
2023-03-26T16:18:58.434Z,96929.91
2023-03-26T16:21:39.572Z,96931.17
2023-03-26T16:24:08.138Z,96929.50
2023-03-26T16:26:43.525Z,96924.84
2023-03-26T16:29:16.426Z,96921.26
2023-03-26T16:32:15.714Z,96918.70
2023-03-26T16:34:57.311Z,96920.99
2023-03-26T16:37:45.913Z,96919.06
2023-03-26T16:40:21.453Z,96924.76
2023-03-26T16:43:03.886Z,96928.45
2023-03-26T16:45:37.214Z,96930.86
2023-03-26T16:48:05.346Z,96938.41
2023-03-26T16:51:05.394Z,96939.47
2023-03-26T16:53:46.303Z,96950.64
2023-03-26T16:56:29.437Z,96951.88
2023-03-26T16:59:09.518Z,96952.96
2023-03-26T17:01:48.211Z,96956.19
2023-03-26T17:04:24.851Z,96962.24
2023-03-26T17:07:20.569Z,96968.44
2023-03-26T17:10:30.835Z,96970.08
2023-03-26T17:13:23.328Z,96977.65
2023-03-26T17:16:20.356Z,96982.02
2023-03-26T17:19:05.391Z,96988.16
2023-03-26T17:22:08.622Z,96989.36
2023-03-26T17:24:49.205Z,96995.23
2023-03-26T17:28:29.944Z,96999.11
2023-03-26T17:31:23.622Z,97004.26
2023-03-26T17:33:52.153Z,97010.06
2023-03-26T17:36:21.432Z,97005.97
2023-03-26T17:38:49.498Z,97004.35
2023-03-26T17:41:51.666Z,97001.30
2023-03-26T17:44:40.932Z,96997.02
2023-03-26T17:47:25.718Z,96994.88
2023-03-26T17:50:25.368Z,96991.99
2023-03-26T17:53:05.071Z,96982.74
2023-03-26T17:55:37.853Z,96978.67
2023-03-26T17:58:27.060Z,96977.42
2023-03-26T18:01:06.986Z,96980.97
2023-03-26T18:03:49.670Z,96987.05
2023-03-26T18:06:41.291Z,96986.88
2023-03-26T18:10:15.990Z,96988.53
2023-03-26T18:13:17.990Z,96975.81
2023-03-26T18:16:26.897Z,96973.61
2023-03-26T18:19:01.636Z,96973.65
2023-03-26T18:21:40.552Z,96968.88
2023-03-26T18:24:18.407Z,96965.03
2023-03-26T18:26:58.496Z,96962.80
2023-03-26T18:29:38.351Z,96964.69
2023-03-26T18:32:09.435Z,96963.41
2023-03-26T18:34:45.745Z,96963.80
2023-03-26T18:37:27.323Z,96965.56
2023-03-26T18:40:23.545Z,96962.80
2023-03-26T18:42:55.897Z,96958.67
2023-03-26T18:45:36.090Z,96957.23
2023-03-26T18:48:21.388Z,96957.92
2023-03-26T18:51:07.118Z,96959.83
2023-03-26T18:53:51.184Z,96958.63
2023-03-26T18:56:36.601Z,96956.54
2023-03-26T18:59:29.064Z,96954.82
2023-03-26T19:01:58.642Z,96953.30
2023-03-26T19:04:31.005Z,96954.30
2023-03-26T19:07:01.588Z,96952.48
2023-03-26T19:09:32.513Z,96949.77
2023-03-26T19:12:29.636Z,96950.74
2023-03-26T19:15:08.206Z,96945.36
2023-03-26T19:17:44.713Z,96941.20
2023-03-26T19:20:23.998Z,96935.35
2023-03-26T19:22:52.832Z,96931.98
2023-03-26T19:25:37.758Z,96929.55
2023-03-26T19:28:14.128Z,96931.29
2023-03-26T19:30:43.213Z,96929.92
2023-03-26T19:33:20.858Z,96929.41
2023-03-26T19:36:03.546Z,96926.80
2023-03-26T19:38:49.254Z,96922.80
2023-03-26T19:41:31.031Z,96919.61
2023-03-26T19:44:02.774Z,96913.13
2023-03-26T19:46:34.569Z,96913.95
2023-03-26T19:49:32.035Z,96909.73
2023-03-26T19:52:29.572Z,96907.91
2023-03-26T19:55:06.775Z,96900.73
2023-03-26T19:57:36.455Z,96903.00
2023-03-26T20:00:13.386Z,96905.94
2023-03-26T20:02:43.519Z,96908.09
2023-03-26T20:05:24.494Z,96899.52
2023-03-26T20:07:56.253Z,96896.05
2023-03-26T20:10:24.685Z,96894.84
2023-03-26T20:12:53.564Z,96893.55
2023-03-26T20:15:26.207Z,96894.61
2023-03-26T20:17:55.544Z,96893.33
2023-03-26T20:20:26.445Z,96888.86
2023-03-26T20:22:54.888Z,96888.99
2023-03-26T20:25:31.680Z,96889.58
2023-03-26T20:28:00.052Z,96888.77
2023-03-26T20:30:37.376Z,96886.86
2023-03-26T20:33:11.863Z,96887.58
2023-03-26T20:35:41.831Z,96882.38
2023-03-26T20:38:10.343Z,96878.00
2023-03-26T20:40:39.758Z,96877.00
2023-03-26T20:43:14.714Z,96869.75
2023-03-26T20:45:42.859Z,96869.94
2023-03-26T20:48:11.027Z,96865.84
2023-03-26T20:50:50.426Z,96860.71
2023-03-26T20:53:20.404Z,96858.23
2023-03-26T20:55:50.389Z,96855.27
2023-03-26T20:58:31.959Z,96860.07
2023-03-26T21:01:02.027Z,96860.13
2023-03-26T21:03:30.722Z,96858.73
2023-03-26T21:06:05.305Z,96856.59
2023-03-26T21:08:36.806Z,96844.85
2023-03-26T21:11:26.397Z,96840.71
2023-03-26T21:14:07.576Z,96843.11
2023-03-26T21:16:36.889Z,96837.10
2023-03-26T21:19:05.782Z,96841.73
2023-03-26T21:21:47.832Z,96838.57
2023-03-26T21:24:40.314Z,96842.14
2023-03-26T21:27:26.074Z,96835.39
2023-03-26T21:29:55.612Z,96829.69
2023-03-26T21:32:24.418Z,96825.23
2023-03-26T21:34:58.689Z,96822.84
2023-03-26T21:37:28.129Z,96820.15
2023-03-26T21:39:57.184Z,96819.45
2023-03-26T21:42:29.189Z,96820.10
2023-03-26T21:44:57.754Z,96817.23
2023-03-26T21:47:26.332Z,96814.41
2023-03-26T21:49:54.997Z,96819.23
2023-03-26T21:52:23.801Z,96818.30
2023-03-26T21:54:52.609Z,96815.63
2023-03-26T21:57:50.834Z,96812.98
2023-03-26T22:00:30.646Z,96810.05
2023-03-26T22:03:20.545Z,96803.53
2023-03-26T22:06:02.097Z,96795.76
2023-03-26T22:08:36.733Z,96785.71
2023-03-26T22:11:07.179Z,96779.10
2023-03-26T22:13:35.812Z,96772.39
2023-03-26T22:16:06.301Z,96764.45
2023-03-26T22:18:34.841Z,96755.27
2023-03-26T22:21:03.232Z,96754.94
2023-03-26T22:23:36.381Z,96750.48
2023-03-26T22:26:06.164Z,96749.95
2023-03-26T22:28:34.575Z,96747.62
2023-03-26T22:31:08.990Z,96740.23
2023-03-26T22:33:40.017Z,96733.63
2023-03-26T22:36:22.154Z,96729.46
2023-03-26T22:38:53.891Z,96731.14
2023-03-26T22:41:23.052Z,96727.88
2023-03-26T22:43:54.513Z,96727.31
2023-03-26T22:46:23.843Z,96727.51
2023-03-26T22:48:52.326Z,96723.09
2023-03-26T22:51:20.527Z,96721.55
2023-03-26T22:53:48.680Z,96719.58
2023-03-26T22:56:17.168Z,96719.84
2023-03-26T22:58:47.956Z,96714.65
2023-03-26T23:01:23.979Z,96704.04
2023-03-26T23:03:52.332Z,96706.77
2023-03-26T23:06:21.602Z,96705.51
2023-03-26T23:08:50.016Z,96705.89
2023-03-26T23:11:20.571Z,96698.71
2023-03-26T23:13:49.756Z,96691.68
2023-03-26T23:16:20.279Z,96685.84
2023-03-26T23:18:48.829Z,96684.95
2023-03-26T23:21:20.910Z,96680.23
2023-03-26T23:23:51.623Z,96680.02
2023-03-26T23:26:20.060Z,96680.73
2023-03-26T23:28:48.621Z,96676.64
2023-03-26T23:31:17.492Z,96677.60
2023-03-26T23:33:50.271Z,96674.64
2023-03-26T23:36:19.901Z,96673.36
2023-03-26T23:38:49.000Z,96672.79
2023-03-26T23:41:21.627Z,96667.02
2023-03-26T23:43:53.963Z,96667.31
2023-03-26T23:46:31.039Z,96666.41
2023-03-26T23:49:02.353Z,96657.34
2023-03-26T23:51:32.134Z,96661.34
2023-03-26T23:54:01.502Z,96658.34
2023-03-26T23:56:30.118Z,96659.13
2023-03-26T23:58:59.254Z,96657.98
